Valley, United Kingdom
Current Conditions -  °F | °C
As of 9:50 PM on Monday 24 Nov 2014 (Local Time) from EGOV Reporting Station
Broken Clouds Broken Clouds  
Wind Chill: 50°   Ceiling: 3300
Heat Index: 50°   Visibility: 6mi
Dew Point: 41°   Wind: 8mph
Humidity: 71%   Direction: 230°SW
Pressure: 30.3"   Gusts: NA
Location:  53.25°N, 4.53°W
Report Text: EGOV 242150Z 23007KT 9999 FEW028 BKN033 10/05 Q1026 BLU
Loading
Personal Weather Stations






























Interactive Weather Map New forecast layout! Learn more

10-Day Weather Forecast

Advertisements
Track Severe Weather on mobile